sensor_id;sensor_type;location;lat;lon;timestamp;pressure;altitude;pressure_sealevel;temperature;humidity
75208;BME280;63795;55.684;37.864;2023-04-03T00:02:19;99643.38;;;7.88;67.05
75208;BME280;63795;55.684;37.864;2023-04-03T00:07:20;99653.84;;;7.88;66.99
75208;BME280;63795;55.684;37.864;2023-04-03T00:12:20;99651.41;;;7.83;67.45
75208;BME280;63795;55.684;37.864;2023-04-03T00:17:20;99652.16;;;7.72;67.86
75208;BME280;63795;55.684;37.864;2023-04-03T00:22:21;99662.56;;;7.61;68.50
75208;BME280;63795;55.684;37.864;2023-04-03T00:27:22;99658.44;;;7.52;68.11
75208;BME280;63795;55.684;37.864;2023-04-03T00:32:22;99656.03;;;7.50;68.46
75208;BME280;63795;55.684;37.864;2023-04-03T00:37:23;99652.78;;;7.48;68.52
75208;BME280;63795;55.684;37.864;2023-04-03T00:42:24;99654.34;;;7.42;68.58
75208;BME280;63795;55.684;37.864;2023-04-03T00:47:24;99657.59;;;7.44;68.43
75208;BME280;63795;55.684;37.864;2023-04-03T00:52:29;99662.47;;;7.47;69.19
75208;BME280;63795;55.684;37.864;2023-04-03T00:57:30;99647.84;;;7.35;69.27
75208;BME280;63795;55.684;37.864;2023-04-03T01:02:32;99652.97;;;7.22;68.85
75208;BME280;63795;55.684;37.864;2023-04-03T01:07:32;99650.44;;;7.10;69.44
75208;BME280;63795;55.684;37.864;2023-04-03T01:12:36;99653.56;;;6.98;69.13
75208;BME280;63795;55.684;37.864;2023-04-03T01:17:45;99660.34;;;6.94;69.47
75208;BME280;63795;55.684;37.864;2023-04-03T01:23:03;99640.19;;;6.92;69.90
75208;BME280;63795;55.684;37.864;2023-04-03T01:28:10;99636.19;;;6.93;69.65
75208;BME280;63795;55.684;37.864;2023-04-03T01:33:11;99643.84;;;6.92;69.76
75208;BME280;63795;55.684;37.864;2023-04-03T01:38:12;99644.56;;;6.85;69.39
75208;BME280;63795;55.684;37.864;2023-04-03T01:43:12;99649.34;;;6.81;70.05
75208;BME280;63795;55.684;37.864;2023-04-03T01:48:13;99644.13;;;6.80;70.11
75208;BME280;63795;55.684;37.864;2023-04-03T01:53:13;99652.94;;;6.75;70.11
75208;BME280;63795;55.684;37.864;2023-04-03T01:58:14;99663.34;;;6.71;70.18
75208;BME280;63795;55.684;37.864;2023-04-03T02:03:15;99656.88;;;6.67;70.26
75208;BME280;63795;55.684;37.864;2023-04-03T02:08:15;99652.78;;;6.61;70.45
75208;BME280;63795;55.684;37.864;2023-04-03T02:13:18;99658.72;;;6.56;70.31
75208;BME280;63795;55.684;37.864;2023-04-03T02:18:18;99654.66;;;6.50;70.78
75208;BME280;63795;55.684;37.864;2023-04-03T02:23:19;99657.38;;;6.43;70.50
75208;BME280;63795;55.684;37.864;2023-04-03T02:28:19;99659.75;;;6.37;71.07
75208;BME280;63795;55.684;37.864;2023-04-03T02:33:20;99656.50;;;6.35;70.75
75208;BME280;63795;55.684;37.864;2023-04-03T02:38:21;99667.25;;;6.30;70.99
75208;BME280;63795;55.684;37.864;2023-04-03T02:43:21;99657.53;;;6.24;71.02
75208;BME280;63795;55.684;37.864;2023-04-03T02:48:22;99660.72;;;6.19;71.05
75208;BME280;63795;55.684;37.864;2023-04-03T02:53:23;99673.13;;;6.18;71.62
75208;BME280;63795;55.684;37.864;2023-04-03T02:58:24;99675.09;;;6.14;71.40
75208;BME280;63795;55.684;37.864;2023-04-03T03:03:24;99673.50;;;6.13;71.64
75208;BME280;63795;55.684;37.864;2023-04-03T03:08:25;99678.69;;;6.11;71.83
75208;BME280;63795;55.684;37.864;2023-04-03T03:13:25;99673.38;;;6.06;71.86
75208;BME280;63795;55.684;37.864;2023-04-03T03:18:26;99677.00;;;6.06;71.48
75208;BME280;63795;55.684;37.864;2023-04-03T03:23:28;99681.38;;;6.03;71.51
75208;BME280;63795;55.684;37.864;2023-04-03T03:28:29;99680.16;;;6.01;71.49
75208;BME280;63795;55.684;37.864;2023-04-03T03:33:30;99678.50;;;5.96;71.91
75208;BME280;63795;55.684;37.864;2023-04-03T03:38:30;99690.94;;;5.95;71.99
75208;BME280;63795;55.684;37.864;2023-04-03T03:43:31;99689.75;;;5.96;71.87
75208;BME280;63795;55.684;37.864;2023-04-03T03:48:31;99688.94;;;5.96;72.36
75208;BME280;63795;55.684;37.864;2023-04-03T03:53:32;99686.50;;;5.94;72.90
75208;BME280;63795;55.684;37.864;2023-04-03T03:58:32;99678.88;;;5.95;72.69
75208;BME280;63795;55.684;37.864;2023-04-03T04:03:33;99697.84;;;6.01;72.65
75208;BME280;63795;55.684;37.864;2023-04-03T04:08:34;99690.59;;;6.00;72.90
75208;BME280;63795;55.684;37.864;2023-04-03T04:13:35;99703.13;;;6.03;72.91
75208;BME280;63795;55.684;37.864;2023-04-03T04:18:35;99688.19;;;5.99;72.55
75208;BME280;63795;55.684;37.864;2023-04-03T04:23:36;99692.28;;;6.05;73.18
75208;BME280;63795;55.684;37.864;2023-04-03T04:28:36;99690.38;;;6.13;72.92
75208;BME280;63795;55.684;37.864;2023-04-03T04:33:36;99703.81;;;6.26;72.85
75208;BME280;63795;55.684;37.864;2023-04-03T04:38:37;99700.34;;;6.36;72.58
75208;BME280;63795;55.684;37.864;2023-04-03T04:43:38;99696.06;;;6.49;72.54
75208;BME280;63795;55.684;37.864;2023-04-03T04:48:39;99686.56;;;6.61;72.03
75208;BME280;63795;55.684;37.864;2023-04-03T04:53:41;99691.56;;;6.78;71.73
75208;BME280;63795;55.684;37.864;2023-04-03T04:58:41;99700.00;;;6.74;71.13
75208;BME280;63795;55.684;37.864;2023-04-03T05:03:42;99704.34;;;6.68;71.19
75208;BME280;63795;55.684;37.864;2023-04-03T05:08:42;99698.63;;;6.61;71.33
75208;BME280;63795;55.684;37.864;2023-04-03T05:13:43;99697.91;;;6.68;71.28
75208;BME280;63795;55.684;37.864;2023-04-03T05:18:43;99694.66;;;6.66;71.69
75208;BME280;63795;55.684;37.864;2023-04-03T05:23:44;99704.91;;;6.81;71.33
75208;BME280;63795;55.684;37.864;2023-04-03T05:28:44;99704.53;;;6.86;71.27
75208;BME280;63795;55.684;37.864;2023-04-03T05:33:45;99698.50;;;6.84;71.27
75208;BME280;63795;55.684;37.864;2023-04-03T05:38:46;99711.47;;;6.92;71.25
75208;BME280;63795;55.684;37.864;2023-04-03T05:43:47;99711.06;;;6.94;71.17
75208;BME280;63795;55.684;37.864;2023-04-03T05:48:48;99705.91;;;6.99;70.96
75208;BME280;63795;55.684;37.864;2023-04-03T05:54:11;99716.81;;;7.04;71.12
75208;BME280;63795;55.684;37.864;2023-04-03T05:59:13;99715.34;;;7.17;71.09
75208;BME280;63795;55.684;37.864;2023-04-03T06:04:13;99716.22;;;7.25;70.27
75208;BME280;63795;55.684;37.864;2023-04-03T06:09:15;99724.84;;;7.42;70.16
75208;BME280;63795;55.684;37.864;2023-04-03T06:14:16;99716.47;;;7.49;70.06
75208;BME280;63795;55.684;37.864;2023-04-03T06:19:18;99728.72;;;7.67;69.94
75208;BME280;63795;55.684;37.864;2023-04-03T06:24:18;99720.72;;;7.77;69.03
75208;BME280;63795;55.684;37.864;2023-04-03T06:29:22;99715.94;;;7.88;69.02
75208;BME280;63795;55.684;37.864;2023-04-03T06:34:22;99720.50;;;8.03;69.13
75208;BME280;63795;55.684;37.864;2023-04-03T06:39:23;99712.22;;;8.34;69.53
75208;BME280;63795;55.684;37.864;2023-04-03T06:44:23;99727.03;;;8.96;68.13
75208;BME280;63795;55.684;37.864;2023-04-03T06:49:24;99727.94;;;9.35;67.72
75208;BME280;63795;55.684;37.864;2023-04-03T06:54:25;99727.97;;;9.67;65.11
75208;BME280;63795;55.684;37.864;2023-04-03T06:59:26;99728.38;;;10.11;63.98
75208;BME280;63795;55.684;37.864;2023-04-03T07:04:26;99736.38;;;10.52;66.18
75208;BME280;63795;55.684;37.864;2023-04-03T07:09:27;99737.00;;;10.91;65.08
75208;BME280;63795;55.684;37.864;2023-04-03T07:14:27;99733.91;;;11.37;64.95
75208;BME280;63795;55.684;37.864;2023-04-03T07:19:27;99738.91;;;11.80;62.63
75208;BME280;63795;55.684;37.864;2023-04-03T07:24:28;99738.81;;;11.91;62.28
75208;BME280;63795;55.684;37.864;2023-04-03T07:29:29;99728.03;;;11.72;62.11
75208;BME280;63795;55.684;37.864;2023-04-03T07:34:30;99743.00;;;11.76;60.17
75208;BME280;63795;55.684;37.864;2023-04-03T07:39:30;99743.09;;;11.62;61.88
75208;BME280;63795;55.684;37.864;2023-04-03T07:44:31;99735.03;;;11.53;61.72
75208;BME280;63795;55.684;37.864;2023-04-03T07:49:32;99748.84;;;11.51;60.04
75208;BME280;63795;55.684;37.864;2023-04-03T07:54:33;99753.75;;;11.44;61.44
75208;BME280;63795;55.684;37.864;2023-04-03T07:59:34;99746.47;;;11.39;62.17
75208;BME280;63795;55.684;37.864;2023-04-03T08:04:34;99752.13;;;11.46;61.19
75208;BME280;63795;55.684;37.864;2023-04-03T08:09:35;99754.13;;;11.49;60.55
75208;BME280;63795;55.684;37.864;2023-04-03T08:14:36;99762.69;;;11.39;59.09
75208;BME280;63795;55.684;37.864;2023-04-03T08:19:39;99741.34;;;11.17;58.79
75208;BME280;63795;55.684;37.864;2023-04-03T08:24:40;99767.34;;;11.08;59.10
75208;BME280;63795;55.684;37.864;2023-04-03T08:29:40;99754.31;;;11.18;60.22
75208;BME280;63795;55.684;37.864;2023-04-03T08:34:51;99761.03;;;11.45;60.77
75208;BME280;63795;55.684;37.864;2023-04-03T08:40:05;99759.69;;;11.63;60.87
75208;BME280;63795;55.684;37.864;2023-04-03T08:50:15;99767.09;;;11.47;56.65
75208;BME280;63795;55.684;37.864;2023-04-03T08:55:27;99770.81;;;11.40;56.34
75208;BME280;63795;55.684;37.864;2023-04-03T09:00:51;99772.78;;;11.47;57.89
75208;BME280;63795;55.684;37.864;2023-04-03T09:06:04;99773.09;;;11.63;58.55
75208;BME280;63795;55.684;37.864;2023-04-03T09:16:39;99785.63;;;11.72;55.97
75208;BME280;63795;55.684;37.864;2023-04-03T09:21:42;99794.97;;;11.62;57.08
75208;BME280;63795;55.684;37.864;2023-04-03T09:26:55;99795.00;;;11.59;57.21
75208;BME280;63795;55.684;37.864;2023-04-03T09:31:59;99791.00;;;11.53;57.46
75208;BME280;63795;55.684;37.864;2023-04-03T09:37:02;99788.13;;;11.60;57.34
75208;BME280;63795;55.684;37.864;2023-04-03T09:42:18;99788.06;;;11.74;56.77
75208;BME280;63795;55.684;37.864;2023-04-03T09:47:30;99790.31;;;11.96;56.67
75208;BME280;63795;55.684;37.864;2023-04-03T09:52:33;99793.28;;;12.27;56.17
75208;BME280;63795;55.684;37.864;2023-04-03T09:57:34;99799.38;;;12.29;55.54
75208;BME280;63795;55.684;37.864;2023-04-03T10:02:37;99796.09;;;12.34;54.20
75208;BME280;63795;55.684;37.864;2023-04-03T10:07:42;99792.88;;;12.69;55.37
75208;BME280;63795;55.684;37.864;2023-04-03T10:12:43;99799.63;;;13.19;57.09
75208;BME280;63795;55.684;37.864;2023-04-03T10:28:35;99806.09;;;13.80;49.99
75208;BME280;63795;55.684;37.864;2023-04-03T10:55:39;99801.38;;;13.97;53.27
75208;BME280;63795;55.684;37.864;2023-04-03T11:00:47;99780.84;;;14.05;51.36
75208;BME280;63795;55.684;37.864;2023-04-03T11:05:51;99793.75;;;14.13;50.41
75208;BME280;63795;55.684;37.864;2023-04-03T11:10:57;99793.28;;;14.18;50.76
75208;BME280;63795;55.684;37.864;2023-04-03T11:16:00;99792.78;;;14.23;51.27
75208;BME280;63795;55.684;37.864;2023-04-03T11:21:08;99794.59;;;13.87;48.20
75208;BME280;63795;55.684;37.864;2023-04-03T11:26:13;99800.63;;;13.66;49.02
75208;BME280;63795;55.684;37.864;2023-04-03T11:36:58;99783.38;;;13.20;49.43
75208;BME280;63795;55.684;37.864;2023-04-03T11:42:38;99792.84;;;13.10;48.16
75208;BME280;63795;55.684;37.864;2023-04-03T11:47:46;99792.56;;;12.97;48.91
75208;BME280;63795;55.684;37.864;2023-04-03T12:02:58;99796.19;;;12.64;49.79
75208;BME280;63795;55.684;37.864;2023-04-03T12:13:24;99783.81;;;12.44;50.26
75208;BME280;63795;55.684;37.864;2023-04-03T12:29:13;99791.28;;;12.68;50.59
75208;BME280;63795;55.684;37.864;2023-04-03T12:39:46;99794.00;;;12.78;51.35
75208;BME280;63795;55.684;37.864;2023-04-03T12:45:19;99797.63;;;12.79;51.21
75208;BME280;63795;55.684;37.864;2023-04-03T12:50:29;99795.19;;;12.81;50.86
75208;BME280;63795;55.684;37.864;2023-04-03T12:55:31;99796.41;;;12.80;51.97
75208;BME280;63795;55.684;37.864;2023-04-03T13:00:34;99785.38;;;12.86;51.64
75208;BME280;63795;55.684;37.864;2023-04-03T13:05:35;99796.84;;;12.78;51.24
75208;BME280;63795;55.684;37.864;2023-04-03T13:11:03;99805.16;;;12.62;51.48
75208;BME280;63795;55.684;37.864;2023-04-03T13:16:10;99789.06;;;12.45;52.60
75208;BME280;63795;55.684;37.864;2023-04-03T13:21:17;99801.16;;;12.56;52.71
75208;BME280;63795;55.684;37.864;2023-04-03T13:26:22;99800.78;;;12.51;53.00
75208;BME280;63795;55.684;37.864;2023-04-03T13:31:38;99804.13;;;12.42;52.51
75208;BME280;63795;55.684;37.864;2023-04-03T13:41:56;99814.66;;;12.45;53.32
75208;BME280;63795;55.684;37.864;2023-04-03T13:47:22;99805.28;;;12.48;52.87
75208;BME280;63795;55.684;37.864;2023-04-03T13:52:33;99794.97;;;12.24;53.26
75208;BME280;63795;55.684;37.864;2023-04-03T13:57:36;99801.50;;;12.18;53.57
75208;BME280;63795;55.684;37.864;2023-04-03T14:02:48;99797.84;;;12.17;53.99
75208;BME280;63795;55.684;37.864;2023-04-03T14:07:49;99796.56;;;12.25;54.58
75208;BME280;63795;55.684;37.864;2023-04-03T14:12:49;99802.97;;;12.33;53.00
75208;BME280;63795;55.684;37.864;2023-04-03T14:17:51;99798.88;;;12.37;53.77
75208;BME280;63795;55.684;37.864;2023-04-03T14:22:53;99805.31;;;12.45;53.56
75208;BME280;63795;55.684;37.864;2023-04-03T14:27:54;99780.72;;;12.28;53.22
75208;BME280;63795;55.684;37.864;2023-04-03T14:32:55;99797.72;;;12.31;52.47
75208;BME280;63795;55.684;37.864;2023-04-03T14:37:55;99796.56;;;12.25;52.88
75208;BME280;63795;55.684;37.864;2023-04-03T14:42:56;99809.09;;;12.31;53.05
75208;BME280;63795;55.684;37.864;2023-04-03T14:47:58;99798.06;;;12.37;53.71
75208;BME280;63795;55.684;37.864;2023-04-03T14:52:59;99801.22;;;12.49;53.48
75208;BME280;63795;55.684;37.864;2023-04-03T14:58:00;99785.00;;;12.46;53.24
75208;BME280;63795;55.684;37.864;2023-04-03T15:03:01;99780.88;;;12.54;53.14
75208;BME280;63795;55.684;37.864;2023-04-03T15:08:01;99794.22;;;12.57;52.84
75208;BME280;63795;55.684;37.864;2023-04-03T15:13:02;99805.63;;;12.54;51.39
75208;BME280;63795;55.684;37.864;2023-04-03T15:18:03;99804.88;;;12.50;53.11
75208;BME280;63795;55.684;37.864;2023-04-03T15:23:04;99791.56;;;12.40;52.82
75208;BME280;63795;55.684;37.864;2023-04-03T15:28:06;99793.59;;;12.39;52.92
75208;BME280;63795;55.684;37.864;2023-04-03T15:33:08;99792.81;;;12.35;52.75
75208;BME280;63795;55.684;37.864;2023-04-03T15:38:09;99794.50;;;12.29;52.01
75208;BME280;63795;55.684;37.864;2023-04-03T15:43:11;99802.19;;;12.32;53.03
75208;BME280;63795;55.684;37.864;2023-04-03T15:48:12;99786.47;;;12.17;51.66
75208;BME280;63795;55.684;37.864;2023-04-03T15:53:12;99805.56;;;12.20;52.14
75208;BME280;63795;55.684;37.864;2023-04-03T15:58:13;99812.84;;;12.21;52.71
75208;BME280;63795;55.684;37.864;2023-04-03T16:03:18;99812.44;;;12.19;52.68
75208;BME280;63795;55.684;37.864;2023-04-03T16:08:20;99820.16;;;12.19;52.87
75208;BME280;63795;55.684;37.864;2023-04-03T16:13:20;99821.84;;;12.13;52.16
75208;BME280;63795;55.684;37.864;2023-04-03T16:18:21;99815.41;;;12.05;53.04
75208;BME280;63795;55.684;37.864;2023-04-03T16:23:22;99815.41;;;12.05;52.65
75208;BME280;63795;55.684;37.864;2023-04-03T16:28:23;99825.13;;;12.08;52.70
75208;BME280;63795;55.684;37.864;2023-04-03T16:33:24;99838.53;;;12.07;52.93
75208;BME280;63795;55.684;37.864;2023-04-03T16:38:24;99843.44;;;12.03;52.79
75208;BME280;63795;55.684;37.864;2023-04-03T16:43:26;99840.19;;;12.01;52.98
75208;BME280;63795;55.684;37.864;2023-04-03T16:48:28;99843.06;;;11.98;53.39
75208;BME280;63795;55.684;37.864;2023-04-03T16:53:28;99843.53;;;11.89;52.79
75208;BME280;63795;55.684;37.864;2023-04-03T16:58:29;99848.03;;;11.83;53.80
75208;BME280;63795;55.684;37.864;2023-04-03T17:03:30;99856.25;;;11.67;54.03
75208;BME280;63795;55.684;37.864;2023-04-03T17:08:34;99861.16;;;11.56;54.59
75208;BME280;63795;55.684;37.864;2023-04-03T17:13:34;99855.50;;;11.52;55.03
75208;BME280;63795;55.684;37.864;2023-04-03T17:18:35;99840.16;;;11.36;55.97
75208;BME280;63795;55.684;37.864;2023-04-03T17:23:37;99868.94;;;11.41;56.31
75208;BME280;63795;55.684;37.864;2023-04-03T17:28:39;99870.59;;;11.32;56.27
75208;BME280;63795;55.684;37.864;2023-04-03T17:33:40;99866.56;;;11.26;56.73
75208;BME280;63795;55.684;37.864;2023-04-03T17:38:41;99859.28;;;11.18;57.88
75208;BME280;63795;55.684;37.864;2023-04-03T17:43:42;99845.94;;;11.11;57.47
75208;BME280;63795;55.684;37.864;2023-04-03T17:48:42;99849.59;;;11.08;58.04
75208;BME280;63795;55.684;37.864;2023-04-03T17:53:43;99841.50;;;11.06;57.55
75208;BME280;63795;55.684;37.864;2023-04-03T17:58:45;99866.22;;;11.09;57.62
75208;BME280;63795;55.684;37.864;2023-04-03T18:03:47;99866.63;;;11.04;57.75
75208;BME280;63795;55.684;37.864;2023-04-03T18:08:50;99840.72;;;10.88;58.63
75208;BME280;63795;55.684;37.864;2023-04-03T18:13:53;99867.03;;;11.06;58.71
75208;BME280;63795;55.684;37.864;2023-04-03T18:18:54;99861.34;;;11.06;58.34
75208;BME280;63795;55.684;37.864;2023-04-03T18:23:55;99867.84;;;11.03;59.25
75208;BME280;63795;55.684;37.864;2023-04-03T18:28:58;99867.47;;;11.01;59.09
75208;BME280;63795;55.684;37.864;2023-04-03T18:33:59;99874.34;;;11.00;59.25
75208;BME280;63795;55.684;37.864;2023-04-03T18:39:00;99867.06;;;10.92;61.09
75208;BME280;63795;55.684;37.864;2023-04-03T18:44:02;99869.53;;;10.83;60.42
75208;BME280;63795;55.684;37.864;2023-04-03T18:49:03;99871.16;;;10.81;59.61
75208;BME280;63795;55.684;37.864;2023-04-03T18:54:05;99859.00;;;10.73;60.49
75208;BME280;63795;55.684;37.864;2023-04-03T18:59:06;99868.72;;;10.72;60.62
75208;BME280;63795;55.684;37.864;2023-04-03T19:04:07;99869.13;;;10.74;60.20
75208;BME280;63795;55.684;37.864;2023-04-03T19:09:08;99869.56;;;10.69;61.52
75208;BME280;63795;55.684;37.864;2023-04-03T19:14:08;99856.56;;;10.68;60.94
75208;BME280;63795;55.684;37.864;2023-04-03T19:19:09;99858.22;;;10.69;60.56
75208;BME280;63795;55.684;37.864;2023-04-03T19:24:11;99856.19;;;10.66;60.70
75208;BME280;63795;55.684;37.864;2023-04-03T19:29:12;99851.34;;;10.63;60.79
75208;BME280;63795;55.684;37.864;2023-04-03T19:34:12;99852.56;;;10.66;61.20
75208;BME280;63795;55.684;37.864;2023-04-03T19:39:13;99856.59;;;10.61;62.23
75208;BME280;63795;55.684;37.864;2023-04-03T19:44:13;99837.19;;;10.46;61.89
75208;BME280;63795;55.684;37.864;2023-04-03T19:49:14;99834.38;;;10.28;63.30
75208;BME280;63795;55.684;37.864;2023-04-03T19:54:14;99826.28;;;10.16;65.68
75208;BME280;63795;55.684;37.864;2023-04-03T19:59:15;99825.84;;;10.03;63.58
75208;BME280;63795;55.684;37.864;2023-04-03T20:04:16;99840.84;;;10.11;63.33
75208;BME280;63795;55.684;37.864;2023-04-03T20:09:17;99844.47;;;10.15;62.84
75208;BME280;63795;55.684;37.864;2023-04-03T20:14:17;99839.66;;;10.12;65.71
75208;BME280;63795;55.684;37.864;2023-04-03T20:19:18;99842.03;;;9.96;65.07
75208;BME280;63795;55.684;37.864;2023-04-03T20:24:19;99832.69;;;9.85;66.30
75208;BME280;63795;55.684;37.864;2023-04-03T20:29:20;99819.38;;;9.82;64.65
75208;BME280;63795;55.684;37.864;2023-04-03T20:34:20;99824.63;;;9.94;64.19
75208;BME280;63795;55.684;37.864;2023-04-03T20:39:21;99811.28;;;9.84;65.73
75208;BME280;63795;55.684;37.864;2023-04-03T20:44:23;99817.31;;;9.72;68.82
75208;BME280;63795;55.684;37.864;2023-04-03T20:49:23;99822.59;;;9.70;66.17
75208;BME280;63795;55.684;37.864;2023-04-03T20:54:24;99815.69;;;9.74;65.48
75208;BME280;63795;55.684;37.864;2023-04-03T20:59:25;99822.56;;;9.80;67.03
75208;BME280;63795;55.684;37.864;2023-04-03T21:04:33;99817.72;;;9.81;65.29
75208;BME280;63795;55.684;37.864;2023-04-03T21:20:55;99817.31;;;9.82;66.34
75208;BME280;63795;55.684;37.864;2023-04-03T21:25:56;99809.63;;;9.72;65.59
75208;BME280;63795;55.684;37.864;2023-04-03T21:30:57;99808.44;;;9.70;66.17
75208;BME280;63795;55.684;37.864;2023-04-03T21:35:57;99797.09;;;9.63;65.49
75208;BME280;63795;55.684;37.864;2023-04-03T21:40:58;99809.22;;;9.63;68.67
75208;BME280;63795;55.684;37.864;2023-04-03T21:46:00;99796.69;;;9.54;66.43
75208;BME280;63795;55.684;37.864;2023-04-03T21:51:04;99805.16;;;9.61;66.33
75208;BME280;63795;55.684;37.864;2023-04-03T21:56:05;99786.97;;;9.48;68.36
75208;BME280;63795;55.684;37.864;2023-04-03T22:01:10;99788.94;;;9.29;69.90
75208;BME280;63795;55.684;37.864;2023-04-03T22:06:13;99785.25;;;9.11;69.55
75208;BME280;63795;55.684;37.864;2023-04-03T22:11:14;99777.13;;;8.99;70.40
75208;BME280;63795;55.684;37.864;2023-04-03T22:16:15;99780.31;;;8.91;72.03
75208;BME280;63795;55.684;37.864;2023-04-03T22:21:16;99774.66;;;8.84;73.14
75208;BME280;63795;55.684;37.864;2023-04-03T22:26:16;99771.38;;;8.78;72.68
75208;BME280;63795;55.684;37.864;2023-04-03T22:31:17;99770.19;;;8.83;71.14
75208;BME280;63795;55.684;37.864;2023-04-03T22:36:19;99773.84;;;8.83;72.97
75208;BME280;63795;55.684;37.864;2023-04-03T22:41:20;99777.84;;;8.75;71.99
75208;BME280;63795;55.684;37.864;2023-04-03T22:46:21;99775.44;;;8.81;71.93
75208;BME280;63795;55.684;37.864;2023-04-03T22:51:21;99764.53;;;8.83;71.74
75208;BME280;63795;55.684;37.864;2023-04-03T22:56:22;99759.28;;;8.81;70.25
75208;BME280;63795;55.684;37.864;2023-04-03T23:01:23;99758.44;;;8.74;72.46
75208;BME280;63795;55.684;37.864;2023-04-03T23:06:24;99751.56;;;8.71;72.15
75208;BME280;63795;55.684;37.864;2023-04-03T23:11:25;99765.28;;;8.73;72.09
75208;BME280;63795;55.684;37.864;2023-04-03T23:16:26;99753.19;;;8.72;70.89
75208;BME280;63795;55.684;37.864;2023-04-03T23:21:26;99752.00;;;8.80;70.45
75208;BME280;63795;55.684;37.864;2023-04-03T23:26:27;99756.06;;;8.86;70.63
75208;BME280;63795;55.684;37.864;2023-04-03T23:31:27;99738.69;;;8.84;71.14
75208;BME280;63795;55.684;37.864;2023-04-03T23:36:28;99725.28;;;8.60;71.78
75208;BME280;63795;55.684;37.864;2023-04-03T23:41:28;99751.50;;;8.61;72.13
75208;BME280;63795;55.684;37.864;2023-04-03T23:46:28;99743.81;;;8.54;72.57
75208;BME280;63795;55.684;37.864;2023-04-03T23:51:29;99740.56;;;8.52;72.17
75208;BME280;63795;55.684;37.864;2023-04-03T23:56:30;99753.50;;;8.53;72.66
